createdAt,value
2023-02-06T00:02:02.409Z,26.65
2023-02-06T00:04:31.827Z,23.42
2023-02-06T00:07:00.955Z,31.38
2023-02-06T00:09:34.418Z,32.85
2023-02-06T00:12:02.920Z,26.00
2023-02-06T00:14:31.967Z,30.85
2023-02-06T00:17:01.314Z,27.92
2023-02-06T00:19:30.239Z,32.60
2023-02-06T00:21:59.127Z,32.05
2023-02-06T00:24:27.860Z,24.67
2023-02-06T00:27:01.200Z,24.95
2023-02-06T00:29:34.077Z,30.85
2023-02-06T00:32:06.296Z,24.67
2023-02-06T00:34:38.295Z,22.25
2023-02-06T00:37:07.710Z,25.30
2023-02-06T00:39:37.946Z,25.38
2023-02-06T00:42:08.766Z,27.27
2023-02-06T00:47:13.252Z,28.08
2023-02-06T00:49:41.785Z,24.58
2023-02-06T00:52:10.745Z,21.98
2023-02-06T00:54:39.264Z,24.40
2023-02-06T00:57:09.098Z,29.33
2023-02-06T00:59:38.050Z,23.67
2023-02-06T01:02:06.819Z,30.40
2023-02-06T01:04:35.798Z,25.05
2023-02-06T01:07:04.476Z,23.08
2023-02-06T01:09:33.696Z,24.60
2023-02-06T01:12:16.183Z,21.80
2023-02-06T01:15:05.848Z,29.67
2023-02-06T01:17:48.753Z,27.98
2023-02-06T01:20:27.276Z,25.40
2023-02-06T01:23:02.878Z,29.65
2023-02-06T01:25:43.808Z,27.65
2023-02-06T01:28:22.617Z,29.13
2023-02-06T01:30:54.493Z,23.65
2023-02-06T01:33:29.615Z,26.02
2023-02-06T01:36:09.395Z,22.95
2023-02-06T01:38:38.353Z,20.38
2023-02-06T01:41:17.190Z,26.38
2023-02-06T01:44:24.868Z,20.75
2023-02-06T01:47:02.800Z,18.38
2023-02-06T01:49:53.919Z,16.23
2023-02-06T01:52:30.502Z,20.50
2023-02-06T01:55:04.654Z,20.60
2023-02-06T01:57:37.693Z,24.67
2023-02-06T02:00:20.621Z,24.13
2023-02-06T02:02:54.893Z,16.95
2023-02-06T02:05:42.708Z,18.77
2023-02-06T02:08:26.084Z,18.48
2023-02-06T02:10:55.101Z,20.77
2023-02-06T02:13:23.458Z,20.80
2023-02-06T02:16:10.904Z,21.85
2023-02-06T02:19:01.124Z,22.33
2023-02-06T02:22:16.048Z,22.48
2023-02-06T02:25:06.980Z,14.57
2023-02-06T02:28:02.972Z,17.40
2023-02-06T02:31:00.383Z,14.98
2023-02-06T02:34:02.565Z,14.30
2023-02-06T02:36:38.652Z,11.15
2023-02-06T02:39:15.515Z,15.27
2023-02-06T02:41:50.583Z,15.15
2023-02-06T02:44:27.689Z,11.18
2023-02-06T02:46:59.336Z,14.18
2023-02-06T02:49:30.930Z,12.13
2023-02-06T02:52:00.956Z,13.80
2023-02-06T02:54:29.741Z,12.73
2023-02-06T02:57:03.945Z,10.95
2023-02-06T02:59:37.031Z,14.23
2023-02-06T03:02:11.057Z,13.95
2023-02-06T03:04:45.950Z,8.52
2023-02-06T03:07:25.616Z,10.40
2023-02-06T03:10:02.976Z,9.88
2023-02-06T03:12:38.385Z,16.63
2023-02-06T03:15:14.690Z,14.38
2023-02-06T03:17:48.779Z,10.30
2023-02-06T03:20:18.596Z,11.10
2023-02-06T03:22:55.525Z,12.25
2023-02-06T03:25:29.379Z,9.60
2023-02-06T03:28:00.942Z,10.57
2023-02-06T03:30:31.093Z,15.73
2023-02-06T03:33:05.038Z,9.80
2023-02-06T03:35:36.745Z,14.00
2023-02-06T03:38:08.827Z,12.27
2023-02-06T03:40:39.373Z,11.32
2023-02-06T03:43:08.839Z,13.75
2023-02-06T03:45:41.990Z,13.45
2023-02-06T03:48:22.525Z,11.55
2023-02-06T03:50:54.581Z,8.20
2023-02-06T03:53:27.479Z,12.65
2023-02-06T03:56:00.586Z,11.75
2023-02-06T03:58:33.110Z,15.10
2023-02-06T04:01:04.030Z,11.60
2023-02-06T04:03:33.325Z,9.60
2023-02-06T04:06:02.104Z,14.88
2023-02-06T04:08:32.309Z,13.63
2023-02-06T04:11:00.711Z,12.25
2023-02-06T04:13:29.092Z,11.98
2023-02-06T04:15:57.570Z,14.93
2023-02-06T04:18:26.078Z,12.02
2023-02-06T04:20:54.445Z,15.82
2023-02-06T04:23:25.980Z,14.85
2023-02-06T04:25:55.756Z,12.55
2023-02-06T04:28:24.153Z,15.30
2023-02-06T04:30:52.625Z,17.05
2023-02-06T04:33:21.185Z,18.08
2023-02-06T04:35:50.260Z,15.02
2023-02-06T04:38:18.768Z,14.05
2023-02-06T04:40:47.228Z,18.75
2023-02-06T04:43:17.161Z,18.45
2023-02-06T04:45:45.527Z,24.13
2023-02-06T04:48:13.849Z,20.73
2023-02-06T04:50:42.173Z,17.52
2023-02-06T04:53:10.633Z,21.40
2023-02-06T04:55:39.001Z,18.70
2023-02-06T04:58:07.449Z,16.98
2023-02-06T05:00:38.825Z,38.53
2023-02-06T05:03:07.472Z,32.80
2023-02-06T05:05:36.006Z,37.38
2023-02-06T05:08:04.663Z,25.30
2023-02-06T05:10:33.182Z,25.33
2023-02-06T05:13:01.550Z,28.33
2023-02-06T05:15:29.980Z,19.17
2023-02-06T05:17:59.798Z,22.65
2023-02-06T05:20:28.234Z,25.00
2023-02-06T05:22:56.589Z,35.65
2023-02-06T05:25:25.680Z,23.38
2023-02-06T05:27:55.360Z,25.75
2023-02-06T05:30:23.744Z,19.60
2023-02-06T05:32:52.266Z,16.77
2023-02-06T05:35:22.112Z,17.38
2023-02-06T05:37:50.376Z,38.95
2023-02-06T05:40:18.944Z,34.67
2023-02-06T05:42:47.453Z,25.58
2023-02-06T05:45:15.842Z,30.17
2023-02-06T05:47:44.175Z,30.15
2023-02-06T05:50:12.593Z,19.05
2023-02-06T05:52:45.344Z,26.38
2023-02-06T05:55:14.247Z,24.13
2023-02-06T05:57:42.564Z,28.92
2023-02-06T06:00:12.625Z,26.95
2023-02-06T06:02:41.168Z,20.48
2023-02-06T06:05:10.010Z,21.65
2023-02-06T06:07:38.459Z,21.45
2023-02-06T06:10:09.022Z,25.20
2023-02-06T06:12:37.696Z,19.80
2023-02-06T06:15:06.596Z,21.35
2023-02-06T06:17:34.930Z,25.00
2023-02-06T06:20:03.241Z,22.02
2023-02-06T06:22:31.891Z,24.67
2023-02-06T06:25:00.245Z,23.02
2023-02-06T06:27:29.976Z,25.88
2023-02-06T06:29:58.249Z,22.88
2023-02-06T06:32:26.567Z,22.48
2023-02-06T06:34:54.978Z,18.38
2023-02-06T06:37:23.329Z,22.95
2023-02-06T06:39:51.651Z,23.92
2023-02-06T06:42:20.058Z,22.48
2023-02-06T06:44:49.793Z,23.23
2023-02-06T06:47:18.123Z,22.23
2023-02-06T06:49:46.470Z,28.38
2023-02-06T06:52:24.326Z,22.90
2023-02-06T06:54:54.363Z,18.65
2023-02-06T06:57:22.819Z,23.73
2023-02-06T06:59:52.740Z,26.20
2023-02-06T07:02:21.213Z,25.95
2023-02-06T07:04:49.560Z,22.15
2023-02-06T07:07:17.944Z,24.67
2023-02-06T07:09:46.311Z,18.33
2023-02-06T07:12:14.605Z,24.15
2023-02-06T07:14:43.076Z,21.42
2023-02-06T07:17:12.816Z,21.60
2023-02-06T07:19:41.103Z,22.65
2023-02-06T07:22:09.392Z,19.17
2023-02-06T07:24:37.621Z,25.58
2023-02-06T07:27:05.832Z,24.23
2023-02-06T07:29:34.252Z,21.25
2023-02-06T07:32:02.521Z,22.13
2023-02-06T07:34:32.430Z,26.15
2023-02-06T07:37:00.966Z,31.50
2023-02-06T07:39:29.603Z,22.65
2023-02-06T07:41:57.791Z,130.95
2023-02-06T07:44:26.008Z,37.97
2023-02-06T07:46:55.093Z,32.97
2023-02-06T07:49:23.469Z,29.15
2023-02-06T07:51:53.418Z,31.70
2023-02-06T07:54:21.683Z,29.70
2023-02-06T07:56:49.918Z,30.42
2023-02-06T07:59:18.261Z,36.67
2023-02-06T08:01:46.502Z,23.35
2023-02-06T08:04:14.863Z,23.73
2023-02-06T08:06:44.027Z,26.27
2023-02-06T08:09:17.152Z,33.80
2023-02-06T08:11:45.428Z,34.53
2023-02-06T08:14:13.826Z,25.60
2023-02-06T08:16:43.069Z,26.30
2023-02-06T08:19:12.369Z,22.85
2023-02-06T08:21:40.683Z,24.92
2023-02-06T08:24:11.877Z,31.70
2023-02-06T08:26:41.647Z,35.83
2023-02-06T08:29:10.320Z,22.92
2023-02-06T08:31:40.908Z,24.30
2023-02-06T08:34:11.677Z,25.02
2023-02-06T08:36:40.989Z,22.67
2023-02-06T08:39:10.414Z,25.90
2023-02-06T08:41:41.541Z,23.63
2023-02-06T08:44:12.782Z,30.50
2023-02-06T08:46:41.461Z,38.78
2023-02-06T08:49:13.938Z,24.25
2023-02-06T08:51:42.457Z,26.75
2023-02-06T08:54:13.804Z,28.65
2023-02-06T08:56:43.433Z,32.85
2023-02-06T08:59:13.716Z,37.00
2023-02-06T09:01:42.612Z,40.65
2023-02-06T09:04:13.121Z,28.75
2023-02-06T09:06:43.484Z,32.05
2023-02-06T09:09:12.921Z,34.10
2023-02-06T09:11:43.272Z,31.65
2023-02-06T09:14:15.660Z,25.33
2023-02-06T09:16:44.240Z,36.30
2023-02-06T09:19:12.782Z,32.22
2023-02-06T09:21:41.235Z,25.83
2023-02-06T09:24:10.673Z,27.73
2023-02-06T09:26:58.132Z,31.80
2023-02-06T09:29:32.157Z,28.65
2023-02-06T09:32:00.999Z,30.17
2023-02-06T09:34:30.119Z,33.78
2023-02-06T09:37:01.344Z,30.33
2023-02-06T09:39:29.870Z,30.60
2023-02-06T09:42:04.361Z,33.00
2023-02-06T09:44:36.958Z,30.52
2023-02-06T09:47:13.705Z,34.40
2023-02-06T09:49:47.490Z,41.80
2023-02-06T09:52:39.449Z,33.42
2023-02-06T09:55:13.786Z,29.58
2023-02-06T09:57:50.972Z,27.83
2023-02-06T10:00:41.605Z,23.48
2023-02-06T10:03:26.662Z,25.35
2023-02-06T10:06:04.550Z,23.27
2023-02-06T10:08:38.496Z,23.35
2023-02-06T10:11:14.153Z,22.27
2023-02-06T10:13:49.701Z,21.95
2023-02-06T10:16:34.173Z,20.88
2023-02-06T10:19:06.018Z,21.10
2023-02-06T10:21:38.111Z,24.05
2023-02-06T10:24:12.662Z,22.60
2023-02-06T10:26:41.804Z,17.70
2023-02-06T10:29:19.939Z,23.40
2023-02-06T10:32:01.376Z,24.35
2023-02-06T10:34:57.191Z,22.40
2023-02-06T10:37:34.700Z,19.00
2023-02-06T10:40:30.968Z,18.23
2023-02-06T10:43:03.932Z,24.67
2023-02-06T10:45:40.662Z,17.92
2023-02-06T10:48:19.827Z,21.17
2023-02-06T10:50:52.158Z,25.00
2023-02-06T10:53:26.887Z,29.30
2023-02-06T10:56:00.513Z,28.80
2023-02-06T10:58:33.483Z,18.15
2023-02-06T11:01:02.148Z,23.40
2023-02-06T11:03:33.174Z,19.25
2023-02-06T11:06:03.981Z,21.65
2023-02-06T11:08:41.798Z,22.67
2023-02-06T11:11:21.048Z,23.35
2023-02-06T11:13:52.492Z,25.15
2023-02-06T11:16:26.303Z,20.42
2023-02-06T11:19:00.125Z,21.80
2023-02-06T11:21:53.117Z,27.45
2023-02-06T11:24:23.046Z,24.92
2023-02-06T11:26:55.775Z,25.40
2023-02-06T11:29:26.554Z,18.85
2023-02-06T11:31:58.625Z,21.52
2023-02-06T11:34:34.456Z,30.23
2023-02-06T11:37:04.513Z,21.35
2023-02-06T11:39:34.655Z,27.67
2023-02-06T11:42:06.628Z,22.77
2023-02-06T11:44:44.889Z,18.85
2023-02-06T11:47:33.813Z,21.50
2023-02-06T11:50:24.381Z,25.70
2023-02-06T11:52:58.680Z,18.52
2023-02-06T11:55:29.868Z,25.27
2023-02-06T11:58:08.298Z,28.92
2023-02-06T12:00:38.257Z,26.73
2023-02-06T12:03:07.760Z,22.52
2023-02-06T12:05:43.202Z,21.80
2023-02-06T12:08:15.821Z,20.85
2023-02-06T12:10:54.952Z,19.60
2023-02-06T12:13:26.744Z,32.30
2023-02-06T12:15:57.948Z,27.90
2023-02-06T12:18:29.850Z,23.60
2023-02-06T12:21:06.550Z,31.42
2023-02-06T12:23:39.112Z,24.52
2023-02-06T12:26:12.822Z,21.23
2023-02-06T12:28:51.500Z,35.72
2023-02-06T12:31:24.187Z,37.40
2023-02-06T12:33:55.214Z,27.75
2023-02-06T12:36:26.680Z,30.95
2023-02-06T12:39:03.874Z,23.45
2023-02-06T12:41:53.792Z,23.05
2023-02-06T12:44:29.264Z,26.05
2023-02-06T12:47:05.348Z,24.52
2023-02-06T12:49:38.811Z,22.00
2023-02-06T12:52:17.047Z,18.55
2023-02-06T12:54:51.648Z,20.83
2023-02-06T12:57:23.665Z,22.35
2023-02-06T13:00:32.341Z,20.00
2023-02-06T13:03:21.005Z,16.92
2023-02-06T13:05:51.861Z,16.50
2023-02-06T13:08:29.161Z,24.17
2023-02-06T13:11:03.096Z,27.85
2023-02-06T13:13:37.740Z,21.00
2023-02-06T13:16:07.274Z,28.40
2023-02-06T13:19:03.506Z,15.73
2023-02-06T13:21:35.583Z,20.55
2023-02-06T13:24:20.045Z,24.65
2023-02-06T13:27:15.527Z,20.23
2023-02-06T13:29:46.093Z,28.77
2023-02-06T13:32:42.105Z,15.98
2023-02-06T13:35:27.065Z,18.73
2023-02-06T13:38:37.016Z,19.08
2023-02-06T13:41:37.210Z,19.75
2023-02-06T13:44:11.182Z,22.55
2023-02-06T13:47:14.496Z,20.00
2023-02-06T13:50:13.467Z,24.33
2023-02-06T13:52:50.632Z,19.73
2023-02-06T13:55:33.336Z,19.58
2023-02-06T13:58:39.128Z,16.10
2023-02-06T14:01:14.333Z,18.48
2023-02-06T14:03:47.481Z,13.00
2023-02-06T14:06:36.120Z,15.15
2023-02-06T14:09:20.037Z,20.55
2023-02-06T14:12:17.100Z,13.90
2023-02-06T14:14:58.201Z,14.95
2023-02-06T14:17:40.205Z,19.15
2023-02-06T14:20:22.508Z,14.90
2023-02-06T14:23:02.954Z,14.57
2023-02-06T14:25:46.161Z,22.35
2023-02-06T14:28:29.478Z,18.77
2023-02-06T14:31:08.327Z,20.52
2023-02-06T14:33:59.711Z,13.77
2023-02-06T14:36:47.634Z,22.95
2023-02-06T14:39:35.937Z,31.80
2023-02-06T14:42:09.119Z,31.60
2023-02-06T14:44:37.377Z,23.23
2023-02-06T14:47:07.081Z,19.58
2023-02-06T14:49:38.008Z,15.45
2023-02-06T14:52:07.063Z,13.25
2023-02-06T14:54:38.427Z,17.25
2023-02-06T14:57:19.511Z,23.52
2023-02-06T14:59:57.006Z,21.77
2023-02-06T15:02:35.722Z,18.67
2023-02-06T15:05:05.542Z,19.38
2023-02-06T15:07:36.090Z,18.65
2023-02-06T15:10:09.101Z,17.17
2023-02-06T15:12:40.906Z,19.17
2023-02-06T15:15:21.361Z,14.48
2023-02-06T15:18:05.720Z,24.48
2023-02-06T15:20:41.763Z,13.70
2023-02-06T15:23:18.566Z,14.65
2023-02-06T15:25:58.321Z,21.95
2023-02-06T15:28:31.184Z,20.95
2023-02-06T15:31:01.328Z,21.40
2023-02-06T15:33:41.787Z,21.20
2023-02-06T15:36:22.908Z,20.90
2023-02-06T15:38:51.537Z,18.75
2023-02-06T15:41:20.417Z,22.80
2023-02-06T15:43:49.001Z,25.05
2023-02-06T15:46:23.188Z,25.50
2023-02-06T15:48:57.475Z,36.22
2023-02-06T15:51:30.440Z,33.30
2023-02-06T15:54:09.284Z,47.25
2023-02-06T15:56:41.230Z,35.38
2023-02-06T15:59:19.341Z,38.47
2023-02-06T16:01:51.730Z,43.90
2023-02-06T16:04:25.510Z,44.67
2023-02-06T16:07:03.541Z,45.35
2023-02-06T16:09:33.315Z,30.45
2023-02-06T16:12:02.029Z,33.65
2023-02-06T16:14:35.572Z,31.73
2023-02-06T16:17:06.853Z,33.38
2023-02-06T16:19:48.488Z,62.58
2023-02-06T16:22:25.675Z,71.32
2023-02-06T16:25:13.779Z,51.40
2023-02-06T16:27:45.741Z,37.20
2023-02-06T16:30:22.966Z,34.20
2023-02-06T16:32:53.578Z,28.20
2023-02-06T16:35:25.504Z,30.45
2023-02-06T16:37:56.150Z,26.30
2023-02-06T16:40:26.202Z,27.48
2023-02-06T16:42:54.633Z,26.40
2023-02-06T16:45:24.959Z,29.27
2023-02-06T16:47:53.922Z,27.23
2023-02-06T16:50:23.194Z,30.33
2023-02-06T16:52:54.466Z,26.10
2023-02-06T16:55:28.885Z,28.67
2023-02-06T16:58:00.598Z,22.17
2023-02-06T17:00:33.019Z,25.05
2023-02-06T17:03:02.225Z,23.65
2023-02-06T17:05:31.621Z,24.20
2023-02-06T17:08:03.902Z,24.00
2023-02-06T17:10:32.380Z,27.92
2023-02-06T17:13:03.418Z,24.58
2023-02-06T17:15:32.412Z,33.35
2023-02-06T17:18:00.709Z,33.10
2023-02-06T17:20:36.651Z,35.25
2023-02-06T17:23:07.168Z,31.20
2023-02-06T17:25:35.865Z,32.88
2023-02-06T17:28:07.093Z,29.27
2023-02-06T17:30:37.124Z,30.77
2023-02-06T17:33:06.341Z,23.02
2023-02-06T17:35:36.783Z,23.25
2023-02-06T17:38:06.585Z,25.67
2023-02-06T17:40:36.764Z,32.15
2023-02-06T17:43:08.238Z,30.25
2023-02-06T17:45:38.538Z,30.90
2023-02-06T17:48:07.765Z,24.75
2023-02-06T17:50:38.161Z,29.75
2023-02-06T17:53:10.370Z,27.55
2023-02-06T17:55:38.860Z,23.35
2023-02-06T17:58:07.708Z,21.38
2023-02-06T18:00:36.321Z,25.10
2023-02-06T18:03:05.960Z,24.48
2023-02-06T18:05:34.845Z,29.58
2023-02-06T18:08:07.364Z,26.92
2023-02-06T18:10:35.994Z,34.83
2023-02-06T18:13:07.564Z,29.83
2023-02-06T18:15:38.663Z,39.78
2023-02-06T18:18:10.116Z,35.90
2023-02-06T18:20:38.605Z,33.60
2023-02-06T18:23:09.167Z,34.78
2023-02-06T18:25:43.607Z,36.13
2023-02-06T18:28:17.022Z,26.13
2023-02-06T18:30:52.129Z,27.55
2023-02-06T18:33:23.567Z,28.65
2023-02-06T18:35:54.789Z,26.00
2023-02-06T18:38:25.112Z,29.95
2023-02-06T18:40:53.339Z,33.63
2023-02-06T18:43:20.765Z,29.98
2023-02-06T18:45:49.070Z,31.58
2023-02-06T18:48:17.468Z,34.92
2023-02-06T18:50:45.691Z,33.85
2023-02-06T18:53:14.210Z,33.33
2023-02-06T18:55:53.082Z,37.75
2023-02-06T18:58:24.385Z,29.38
2023-02-06T19:00:55.283Z,33.08
2023-02-06T19:03:26.367Z,28.30
2023-02-06T19:05:54.925Z,29.05
2023-02-06T19:08:23.172Z,29.63
2023-02-06T19:10:52.941Z,29.60
2023-02-06T19:13:26.999Z,33.58
2023-02-06T19:16:08.995Z,35.45
2023-02-06T19:18:44.390Z,29.35
2023-02-06T19:21:17.405Z,35.78
2023-02-06T19:23:49.113Z,47.10
2023-02-06T19:26:18.986Z,39.83
2023-02-06T19:28:47.856Z,37.45
2023-02-06T19:31:21.320Z,46.50
2023-02-06T19:33:49.617Z,40.60
2023-02-06T19:36:20.893Z,44.60
2023-02-06T19:38:50.032Z,37.67
2023-02-06T19:41:21.499Z,35.55
2023-02-06T19:43:50.256Z,37.83
2023-02-06T19:46:20.721Z,35.97
2023-02-06T19:48:56.582Z,38.17
2023-02-06T19:51:27.407Z,33.53
2023-02-06T19:53:57.663Z,37.03
2023-02-06T19:56:30.924Z,38.53
2023-02-06T19:59:03.499Z,29.10
2023-02-06T20:01:32.445Z,34.53
2023-02-06T20:04:02.307Z,34.05
2023-02-06T20:06:36.832Z,32.30
2023-02-06T20:09:07.208Z,35.58
2023-02-06T20:11:36.877Z,29.50
2023-02-06T20:14:05.661Z,36.97
2023-02-06T20:16:36.400Z,36.58
2023-02-06T20:19:08.537Z,36.42
2023-02-06T20:21:39.462Z,32.08
2023-02-06T20:24:15.667Z,30.73
2023-02-06T20:26:46.085Z,27.45
2023-02-06T20:29:21.204Z,33.90
2023-02-06T20:31:56.271Z,37.20
2023-02-06T20:34:26.590Z,57.08
2023-02-06T20:36:58.351Z,40.22
2023-02-06T20:39:31.248Z,45.47
2023-02-06T20:42:03.680Z,44.22
2023-02-06T20:44:32.017Z,36.15
2023-02-06T20:47:01.065Z,46.00
2023-02-06T20:49:31.464Z,38.47
2023-02-06T20:51:59.954Z,40.95
2023-02-06T20:54:28.461Z,29.88
2023-02-06T20:56:57.208Z,29.83
2023-02-06T20:59:27.251Z,34.90
2023-02-06T21:01:55.584Z,39.55
2023-02-06T21:04:23.855Z,30.88
2023-02-06T21:06:52.203Z,32.00
2023-02-06T21:09:23.549Z,40.83
2023-02-06T21:11:51.845Z,34.13
2023-02-06T21:14:21.582Z,32.53
2023-02-06T21:16:54.144Z,31.48
2023-02-06T21:19:23.325Z,33.70
2023-02-06T21:21:51.980Z,36.70
2023-02-06T21:24:20.508Z,40.25
2023-02-06T21:26:48.878Z,31.75
2023-02-06T21:29:17.580Z,31.45
2023-02-06T21:31:46.406Z,38.17
2023-02-06T21:34:18.734Z,29.70
2023-02-06T21:36:48.192Z,38.05
2023-02-06T21:39:18.553Z,37.75
2023-02-06T21:41:53.717Z,37.22
2023-02-06T21:44:24.340Z,35.13
2023-02-06T21:46:56.826Z,38.45
2023-02-06T21:49:29.980Z,41.40
2023-02-06T21:52:04.945Z,38.45
2023-02-06T21:54:33.433Z,38.25
2023-02-06T21:57:04.841Z,31.80
2023-02-06T21:59:34.689Z,34.97
2023-02-06T22:02:03.410Z,26.88
2023-02-06T22:04:33.827Z,35.28
2023-02-06T22:07:02.557Z,30.30
2023-02-06T22:09:40.226Z,31.45
2023-02-06T22:12:09.265Z,32.83
2023-02-06T22:14:41.361Z,37.75
2023-02-06T22:17:10.247Z,32.25
2023-02-06T22:19:46.063Z,32.40
2023-02-06T22:22:18.400Z,38.85
2023-02-06T22:24:47.480Z,27.05
2023-02-06T22:27:22.625Z,33.85
2023-02-06T22:30:00.549Z,37.90
2023-02-06T22:32:58.608Z,33.97
2023-02-06T22:35:39.909Z,35.65
2023-02-06T22:38:18.244Z,35.05
2023-02-06T22:40:48.472Z,29.40
2023-02-06T22:43:30.853Z,31.10
2023-02-06T22:46:03.721Z,35.08
2023-02-06T22:48:36.064Z,38.42
2023-02-06T22:51:11.834Z,32.53
2023-02-06T22:53:41.335Z,37.45
2023-02-06T22:56:30.968Z,36.85
2023-02-06T22:59:08.422Z,39.80
2023-02-06T23:01:52.820Z,30.45
2023-02-06T23:04:35.622Z,40.63
2023-02-06T23:07:15.618Z,38.47
2023-02-06T23:09:53.989Z,36.05
2023-02-06T23:12:25.780Z,55.38
2023-02-06T23:14:54.469Z,57.40
2023-02-06T23:17:23.279Z,87.07
2023-02-06T23:19:52.708Z,173.50
2023-02-06T23:22:32.380Z,89.85
2023-02-06T23:25:02.248Z,44.15
2023-02-06T23:27:37.584Z,61.90
2023-02-06T23:30:13.164Z,43.25
2023-02-06T23:32:51.171Z,52.47
2023-02-06T23:35:23.435Z,43.22
2023-02-06T23:38:02.459Z,52.22
2023-02-06T23:40:35.326Z,38.97
2023-02-06T23:43:12.944Z,46.35
2023-02-06T23:45:51.384Z,43.92
2023-02-06T23:48:26.095Z,69.05
2023-02-06T23:50:55.036Z,44.55
2023-02-06T23:53:32.177Z,52.88
2023-02-06T23:56:22.601Z,42.17
2023-02-06T23:58:56.716Z,50.38
